sensor_id;sensor_type;location;lat;lon;timestamp;temperature;humidity
24011;DHT22;12217;50.792;4.372;2023-11-19T00:00:30;13.90;99.90
24011;DHT22;12217;50.792;4.372;2023-11-19T00:02:56;14.00;99.90
24011;DHT22;12217;50.792;4.372;2023-11-19T00:05:21;13.90;99.90
24011;DHT22;12217;50.792;4.372;2023-11-19T00:07:47;13.80;99.90
24011;DHT22;12217;50.792;4.372;2023-11-19T00:10:15;13.80;99.90
24011;DHT22;12217;50.792;4.372;2023-11-19T00:12:50;13.80;99.90
24011;DHT22;12217;50.792;4.372;2023-11-19T00:15:17;13.80;99.90
24011;DHT22;12217;50.792;4.372;2023-11-19T00:17:45;13.80;99.90
24011;DHT22;12217;50.792;4.372;2023-11-19T00:20:12;13.80;99.90
24011;DHT22;12217;50.792;4.372;2023-11-19T00:22:39;13.90;99.90
24011;DHT22;12217;50.792;4.372;2023-11-19T00:25:05;13.90;99.90
24011;DHT22;12217;50.792;4.372;2023-11-19T00:27:31;13.90;99.90
24011;DHT22;12217;50.792;4.372;2023-11-19T00:29:57;13.90;99.90
24011;DHT22;12217;50.792;4.372;2023-11-19T00:32:23;13.90;99.90
24011;DHT22;12217;50.792;4.372;2023-11-19T00:34:48;13.80;99.90
24011;DHT22;12217;50.792;4.372;2023-11-19T00:37:14;13.70;99.90
24011;DHT22;12217;50.792;4.372;2023-11-19T00:39:43;13.80;99.90
24011;DHT22;12217;50.792;4.372;2023-11-19T00:42:11;13.80;99.90
24011;DHT22;12217;50.792;4.372;2023-11-19T00:44:37;13.70;99.90
24011;DHT22;12217;50.792;4.372;2023-11-19T00:47:02;13.80;99.90
24011;DHT22;12217;50.792;4.372;2023-11-19T00:49:28;13.80;99.90
24011;DHT22;12217;50.792;4.372;2023-11-19T00:51:54;13.80;99.90
24011;DHT22;12217;50.792;4.372;2023-11-19T00:54:19;13.80;99.90
24011;DHT22;12217;50.792;4.372;2023-11-19T00:56:45;13.80;99.90
24011;DHT22;12217;50.792;4.372;2023-11-19T00:59:11;13.80;99.90
24011;DHT22;12217;50.792;4.372;2023-11-19T01:01:36;13.80;99.90
24011;DHT22;12217;50.792;4.372;2023-11-19T01:04:02;13.80;99.90
24011;DHT22;12217;50.792;4.372;2023-11-19T01:08:54;13.90;99.90
24011;DHT22;12217;50.792;4.372;2023-11-19T01:11:21;13.80;99.90
24011;DHT22;12217;50.792;4.372;2023-11-19T01:13:47;13.80;99.90
24011;DHT22;12217;50.792;4.372;2023-11-19T01:16:12;13.70;99.90
24011;DHT22;12217;50.792;4.372;2023-11-19T01:18:38;13.80;99.90
24011;DHT22;12217;50.792;4.372;2023-11-19T01:21:05;13.90;99.90
24011;DHT22;12217;50.792;4.372;2023-11-19T01:23:30;13.80;99.90
24011;DHT22;12217;50.792;4.372;2023-11-19T01:25:56;13.80;99.90
24011;DHT22;12217;50.792;4.372;2023-11-19T01:28:21;13.80;99.90
24011;DHT22;12217;50.792;4.372;2023-11-19T01:30:50;13.90;99.90
24011;DHT22;12217;50.792;4.372;2023-11-19T01:33:16;14.00;99.90
24011;DHT22;12217;50.792;4.372;2023-11-19T01:35:42;13.90;99.90
24011;DHT22;12217;50.792;4.372;2023-11-19T01:38:07;13.80;99.90
24011;DHT22;12217;50.792;4.372;2023-11-19T01:40:36;13.90;99.90
24011;DHT22;12217;50.792;4.372;2023-11-19T01:43:03;13.80;99.90
24011;DHT22;12217;50.792;4.372;2023-11-19T01:45:30;13.80;99.90
24011;DHT22;12217;50.792;4.372;2023-11-19T01:48:00;13.80;99.90
24011;DHT22;12217;50.792;4.372;2023-11-19T01:50:27;13.60;99.90
24011;DHT22;12217;50.792;4.372;2023-11-19T01:52:54;13.70;99.90
24011;DHT22;12217;50.792;4.372;2023-11-19T01:55:21;13.70;99.90
24011;DHT22;12217;50.792;4.372;2023-11-19T01:57:48;13.70;99.90
24011;DHT22;12217;50.792;4.372;2023-11-19T02:00:15;13.70;99.90
24011;DHT22;12217;50.792;4.372;2023-11-19T02:02:42;13.60;99.90
24011;DHT22;12217;50.792;4.372;2023-11-19T02:05:09;13.60;99.90
24011;DHT22;12217;50.792;4.372;2023-11-19T02:07:35;13.70;99.90
24011;DHT22;12217;50.792;4.372;2023-11-19T02:10:00;13.70;99.90
24011;DHT22;12217;50.792;4.372;2023-11-19T02:12:28;13.70;99.90
24011;DHT22;12217;50.792;4.372;2023-11-19T02:14:54;13.70;99.90
24011;DHT22;12217;50.792;4.372;2023-11-19T02:17:30;13.60;99.90
24011;DHT22;12217;50.792;4.372;2023-11-19T02:20:00;13.80;99.90
24011;DHT22;12217;50.792;4.372;2023-11-19T02:22:25;13.80;99.90
24011;DHT22;12217;50.792;4.372;2023-11-19T02:24:54;13.70;99.90
24011;DHT22;12217;50.792;4.372;2023-11-19T02:30:12;13.80;99.90
24011;DHT22;12217;50.792;4.372;2023-11-19T02:32:41;13.70;99.90
24011;DHT22;12217;50.792;4.372;2023-11-19T02:35:07;13.60;99.90
24011;DHT22;12217;50.792;4.372;2023-11-19T02:37:37;13.60;99.90
24011;DHT22;12217;50.792;4.372;2023-11-19T02:40:05;13.60;99.90
24011;DHT22;12217;50.792;4.372;2023-11-19T02:42:31;13.50;99.90
24011;DHT22;12217;50.792;4.372;2023-11-19T02:44:57;13.50;99.90
24011;DHT22;12217;50.792;4.372;2023-11-19T02:47:23;13.50;99.90
24011;DHT22;12217;50.792;4.372;2023-11-19T02:49:49;13.50;99.90
24011;DHT22;12217;50.792;4.372;2023-11-19T02:52:15;13.50;99.90
24011;DHT22;12217;50.792;4.372;2023-11-19T02:54:42;13.60;99.90
24011;DHT22;12217;50.792;4.372;2023-11-19T02:57:08;13.50;99.90
24011;DHT22;12217;50.792;4.372;2023-11-19T02:59:38;13.60;99.90
24011;DHT22;12217;50.792;4.372;2023-11-19T03:02:13;13.50;99.90
24011;DHT22;12217;50.792;4.372;2023-11-19T03:04:41;13.50;99.90
24011;DHT22;12217;50.792;4.372;2023-11-19T03:07:09;13.40;99.90
24011;DHT22;12217;50.792;4.372;2023-11-19T03:09:34;13.40;99.90
24011;DHT22;12217;50.792;4.372;2023-11-19T03:12:01;13.30;99.90
24011;DHT22;12217;50.792;4.372;2023-11-19T03:14:26;13.30;99.90
24011;DHT22;12217;50.792;4.372;2023-11-19T03:16:53;13.40;99.90
24011;DHT22;12217;50.792;4.372;2023-11-19T03:19:19;13.40;99.90
24011;DHT22;12217;50.792;4.372;2023-11-19T03:21:44;13.20;99.90
24011;DHT22;12217;50.792;4.372;2023-11-19T03:24:12;13.30;99.90
24011;DHT22;12217;50.792;4.372;2023-11-19T03:26:38;13.40;99.90
24011;DHT22;12217;50.792;4.372;2023-11-19T03:29:04;13.30;99.90
24011;DHT22;12217;50.792;4.372;2023-11-19T03:31:30;13.30;99.90
24011;DHT22;12217;50.792;4.372;2023-11-19T03:33:56;13.20;99.90
24011;DHT22;12217;50.792;4.372;2023-11-19T03:36:21;13.20;99.90
24011;DHT22;12217;50.792;4.372;2023-11-19T03:38:47;13.20;99.90
24011;DHT22;12217;50.792;4.372;2023-11-19T03:41:14;13.10;99.90
24011;DHT22;12217;50.792;4.372;2023-11-19T03:43:40;13.00;99.90
24011;DHT22;12217;50.792;4.372;2023-11-19T03:46:20;13.00;99.90
24011;DHT22;12217;50.792;4.372;2023-11-19T03:48:47;13.00;99.90
24011;DHT22;12217;50.792;4.372;2023-11-19T03:51:13;13.00;99.90
24011;DHT22;12217;50.792;4.372;2023-11-19T03:53:45;13.10;99.90
24011;DHT22;12217;50.792;4.372;2023-11-19T03:56:11;13.00;99.90
24011;DHT22;12217;50.792;4.372;2023-11-19T03:58:37;13.00;99.90
24011;DHT22;12217;50.792;4.372;2023-11-19T04:01:13;13.00;99.90
24011;DHT22;12217;50.792;4.372;2023-11-19T04:03:39;12.90;99.90
24011;DHT22;12217;50.792;4.372;2023-11-19T04:06:04;12.90;99.90
24011;DHT22;12217;50.792;4.372;2023-11-19T04:08:30;13.10;99.90
24011;DHT22;12217;50.792;4.372;2023-11-19T04:10:56;13.10;99.90
24011;DHT22;12217;50.792;4.372;2023-11-19T04:13:21;13.00;99.90
24011;DHT22;12217;50.792;4.372;2023-11-19T04:15:49;12.90;99.90
24011;DHT22;12217;50.792;4.372;2023-11-19T04:18:14;12.90;99.90
24011;DHT22;12217;50.792;4.372;2023-11-19T04:20:40;12.90;99.90
24011;DHT22;12217;50.792;4.372;2023-11-19T04:23:07;12.90;99.90
24011;DHT22;12217;50.792;4.372;2023-11-19T04:25:33;12.80;99.90
24011;DHT22;12217;50.792;4.372;2023-11-19T04:27:58;12.80;99.90
24011;DHT22;12217;50.792;4.372;2023-11-19T04:30:24;13.00;99.90
24011;DHT22;12217;50.792;4.372;2023-11-19T04:32:50;12.90;99.90
24011;DHT22;12217;50.792;4.372;2023-11-19T04:35:15;13.00;99.90
24011;DHT22;12217;50.792;4.372;2023-11-19T04:37:41;12.90;99.90
24011;DHT22;12217;50.792;4.372;2023-11-19T04:40:07;12.80;99.90
24011;DHT22;12217;50.792;4.372;2023-11-19T04:42:33;12.90;99.90
24011;DHT22;12217;50.792;4.372;2023-11-19T04:44:58;12.80;99.90
24011;DHT22;12217;50.792;4.372;2023-11-19T04:47:24;12.90;99.90
24011;DHT22;12217;50.792;4.372;2023-11-19T04:49:50;12.80;99.90
24011;DHT22;12217;50.792;4.372;2023-11-19T04:52:15;12.90;99.90
24011;DHT22;12217;50.792;4.372;2023-11-19T04:54:42;12.90;99.90
24011;DHT22;12217;50.792;4.372;2023-11-19T04:57:08;13.00;99.90
24011;DHT22;12217;50.792;4.372;2023-11-19T04:59:37;13.10;99.90
24011;DHT22;12217;50.792;4.372;2023-11-19T05:02:03;13.20;99.90
24011;DHT22;12217;50.792;4.372;2023-11-19T05:04:30;13.30;99.90
24011;DHT22;12217;50.792;4.372;2023-11-19T05:06:55;13.00;99.90
24011;DHT22;12217;50.792;4.372;2023-11-19T05:11:53;12.90;99.90
24011;DHT22;12217;50.792;4.372;2023-11-19T05:14:19;12.90;99.90
24011;DHT22;12217;50.792;4.372;2023-11-19T05:16:45;12.80;99.90
24011;DHT22;12217;50.792;4.372;2023-11-19T05:19:11;12.80;99.90
24011;DHT22;12217;50.792;4.372;2023-11-19T05:21:37;12.60;99.90
24011;DHT22;12217;50.792;4.372;2023-11-19T05:24:03;12.60;99.90
24011;DHT22;12217;50.792;4.372;2023-11-19T05:26:31;12.60;99.90
24011;DHT22;12217;50.792;4.372;2023-11-19T05:28:57;12.60;99.90
24011;DHT22;12217;50.792;4.372;2023-11-19T05:31:23;12.60;99.90
24011;DHT22;12217;50.792;4.372;2023-11-19T05:33:48;12.60;99.90
24011;DHT22;12217;50.792;4.372;2023-11-19T05:36:14;12.70;99.90
24011;DHT22;12217;50.792;4.372;2023-11-19T05:38:40;12.60;99.90
24011;DHT22;12217;50.792;4.372;2023-11-19T05:41:05;12.50;99.90
24011;DHT22;12217;50.792;4.372;2023-11-19T05:43:31;12.50;99.90
24011;DHT22;12217;50.792;4.372;2023-11-19T05:45:57;12.50;99.90
24011;DHT22;12217;50.792;4.372;2023-11-19T05:48:24;12.60;99.90
24011;DHT22;12217;50.792;4.372;2023-11-19T05:50:49;12.80;99.90
24011;DHT22;12217;50.792;4.372;2023-11-19T05:53:15;12.90;99.90
24011;DHT22;12217;50.792;4.372;2023-11-19T05:55:41;13.00;99.90
24011;DHT22;12217;50.792;4.372;2023-11-19T05:58:30;13.00;99.90
24011;DHT22;12217;50.792;4.372;2023-11-19T06:00:56;12.90;99.90
24011;DHT22;12217;50.792;4.372;2023-11-19T06:03:22;13.00;99.90
24011;DHT22;12217;50.792;4.372;2023-11-19T06:05:48;12.70;99.90
24011;DHT22;12217;50.792;4.372;2023-11-19T06:08:14;12.60;99.90
24011;DHT22;12217;50.792;4.372;2023-11-19T06:10:43;12.50;99.90
24011;DHT22;12217;50.792;4.372;2023-11-19T06:13:12;12.30;99.90
24011;DHT22;12217;50.792;4.372;2023-11-19T06:15:38;12.30;99.90
24011;DHT22;12217;50.792;4.372;2023-11-19T06:18:03;12.40;99.90
24011;DHT22;12217;50.792;4.372;2023-11-19T06:20:30;12.40;99.90
24011;DHT22;12217;50.792;4.372;2023-11-19T06:22:56;12.30;99.90
24011;DHT22;12217;50.792;4.372;2023-11-19T06:25:22;12.30;99.90
24011;DHT22;12217;50.792;4.372;2023-11-19T06:27:50;12.20;99.90
24011;DHT22;12217;50.792;4.372;2023-11-19T06:30:15;12.30;99.90
24011;DHT22;12217;50.792;4.372;2023-11-19T06:32:41;12.30;99.90
24011;DHT22;12217;50.792;4.372;2023-11-19T06:35:07;12.40;99.90
24011;DHT22;12217;50.792;4.372;2023-11-19T06:37:34;12.20;99.90
24011;DHT22;12217;50.792;4.372;2023-11-19T06:40:00;12.20;99.90
24011;DHT22;12217;50.792;4.372;2023-11-19T06:42:25;12.20;99.90
24011;DHT22;12217;50.792;4.372;2023-11-19T06:44:51;12.10;99.90
24011;DHT22;12217;50.792;4.372;2023-11-19T06:47:17;12.10;99.90
24011;DHT22;12217;50.792;4.372;2023-11-19T06:49:46;12.10;99.90
24011;DHT22;12217;50.792;4.372;2023-11-19T06:52:12;12.10;99.90
24011;DHT22;12217;50.792;4.372;2023-11-19T06:54:40;12.20;99.90
24011;DHT22;12217;50.792;4.372;2023-11-19T06:57:06;12.30;99.90
24011;DHT22;12217;50.792;4.372;2023-11-19T06:59:31;12.20;99.90
24011;DHT22;12217;50.792;4.372;2023-11-19T07:01:57;12.10;99.90
24011;DHT22;12217;50.792;4.372;2023-11-19T07:04:23;12.30;99.90
24011;DHT22;12217;50.792;4.372;2023-11-19T07:06:48;12.20;99.90
24011;DHT22;12217;50.792;4.372;2023-11-19T07:09:14;12.20;99.90
24011;DHT22;12217;50.792;4.372;2023-11-19T07:11:41;12.10;99.90
24011;DHT22;12217;50.792;4.372;2023-11-19T07:14:08;12.10;99.90
24011;DHT22;12217;50.792;4.372;2023-11-19T07:16:34;12.00;99.90
24011;DHT22;12217;50.792;4.372;2023-11-19T07:19:00;12.10;99.90
24011;DHT22;12217;50.792;4.372;2023-11-19T07:21:26;12.10;99.90
24011;DHT22;12217;50.792;4.372;2023-11-19T07:23:54;12.10;99.90
24011;DHT22;12217;50.792;4.372;2023-11-19T07:26:19;12.10;99.90
24011;DHT22;12217;50.792;4.372;2023-11-19T07:28:45;12.10;99.90
24011;DHT22;12217;50.792;4.372;2023-11-19T07:31:11;12.00;99.90
24011;DHT22;12217;50.792;4.372;2023-11-19T07:33:39;12.00;99.90
24011;DHT22;12217;50.792;4.372;2023-11-19T07:36:05;12.00;99.90
24011;DHT22;12217;50.792;4.372;2023-11-19T07:38:31;12.00;99.90
24011;DHT22;12217;50.792;4.372;2023-11-19T07:40:56;12.00;99.90
24011;DHT22;12217;50.792;4.372;2023-11-19T07:43:22;12.10;99.90
24011;DHT22;12217;50.792;4.372;2023-11-19T07:45:47;12.00;99.90
24011;DHT22;12217;50.792;4.372;2023-11-19T07:48:13;12.00;99.90
24011;DHT22;12217;50.792;4.372;2023-11-19T07:50:39;12.00;99.90
24011;DHT22;12217;50.792;4.372;2023-11-19T07:53:08;12.10;99.90
24011;DHT22;12217;50.792;4.372;2023-11-19T07:55:34;12.10;99.90
24011;DHT22;12217;50.792;4.372;2023-11-19T07:58:00;12.10;99.90
24011;DHT22;12217;50.792;4.372;2023-11-19T08:00:25;12.10;99.90
24011;DHT22;12217;50.792;4.372;2023-11-19T08:02:52;12.10;99.90
24011;DHT22;12217;50.792;4.372;2023-11-19T08:05:17;12.10;99.90
24011;DHT22;12217;50.792;4.372;2023-11-19T08:07:43;12.10;99.90
24011;DHT22;12217;50.792;4.372;2023-11-19T08:10:08;12.10;99.90
24011;DHT22;12217;50.792;4.372;2023-11-19T08:12:37;12.20;99.90
24011;DHT22;12217;50.792;4.372;2023-11-19T08:15:03;12.20;99.90
24011;DHT22;12217;50.792;4.372;2023-11-19T08:17:30;12.20;99.90
24011;DHT22;12217;50.792;4.372;2023-11-19T08:19:55;12.20;99.90
24011;DHT22;12217;50.792;4.372;2023-11-19T08:22:21;12.20;99.90
24011;DHT22;12217;50.792;4.372;2023-11-19T08:24:48;12.40;99.90
24011;DHT22;12217;50.792;4.372;2023-11-19T08:27:13;12.40;99.90
24011;DHT22;12217;50.792;4.372;2023-11-19T08:29:39;12.60;99.90
24011;DHT22;12217;50.792;4.372;2023-11-19T08:32:06;12.50;99.90
24011;DHT22;12217;50.792;4.372;2023-11-19T08:34:32;12.60;99.90
24011;DHT22;12217;50.792;4.372;2023-11-19T08:36:58;12.60;99.90
24011;DHT22;12217;50.792;4.372;2023-11-19T08:39:23;12.70;99.90
24011;DHT22;12217;50.792;4.372;2023-11-19T08:41:49;12.60;99.90
24011;DHT22;12217;50.792;4.372;2023-11-19T08:44:15;12.50;99.90
24011;DHT22;12217;50.792;4.372;2023-11-19T08:46:50;12.60;99.90
24011;DHT22;12217;50.792;4.372;2023-11-19T08:49:16;12.50;99.90
24011;DHT22;12217;50.792;4.372;2023-11-19T08:51:42;12.50;99.90
24011;DHT22;12217;50.792;4.372;2023-11-19T08:54:08;12.50;99.90
24011;DHT22;12217;50.792;4.372;2023-11-19T08:56:33;12.50;99.90
24011;DHT22;12217;50.792;4.372;2023-11-19T08:59:01;12.70;99.90
24011;DHT22;12217;50.792;4.372;2023-11-19T09:01:26;12.70;99.90
24011;DHT22;12217;50.792;4.372;2023-11-19T09:03:52;12.70;99.90
24011;DHT22;12217;50.792;4.372;2023-11-19T09:06:17;12.70;99.90
24011;DHT22;12217;50.792;4.372;2023-11-19T09:08:43;13.00;99.90
24011;DHT22;12217;50.792;4.372;2023-11-19T09:11:09;13.00;99.90
24011;DHT22;12217;50.792;4.372;2023-11-19T09:13:35;13.00;99.90
24011;DHT22;12217;50.792;4.372;2023-11-19T09:16:01;13.00;99.90
24011;DHT22;12217;50.792;4.372;2023-11-19T09:18:30;13.00;99.90
24011;DHT22;12217;50.792;4.372;2023-11-19T09:20:55;12.90;99.90
24011;DHT22;12217;50.792;4.372;2023-11-19T09:23:21;13.00;99.90
24011;DHT22;12217;50.792;4.372;2023-11-19T09:25:46;13.00;99.90
24011;DHT22;12217;50.792;4.372;2023-11-19T09:28:12;12.90;99.90
24011;DHT22;12217;50.792;4.372;2023-11-19T09:30:39;12.80;99.90
24011;DHT22;12217;50.792;4.372;2023-11-19T09:33:05;13.10;99.90
24011;DHT22;12217;50.792;4.372;2023-11-19T09:35:30;13.30;99.90
24011;DHT22;12217;50.792;4.372;2023-11-19T09:37:56;13.30;99.90
24011;DHT22;12217;50.792;4.372;2023-11-19T09:40:22;13.20;99.90
24011;DHT22;12217;50.792;4.372;2023-11-19T09:42:48;13.00;99.90
24011;DHT22;12217;50.792;4.372;2023-11-19T09:45:16;13.00;99.90
24011;DHT22;12217;50.792;4.372;2023-11-19T09:47:44;13.00;99.90
24011;DHT22;12217;50.792;4.372;2023-11-19T09:50:21;13.10;99.90
24011;DHT22;12217;50.792;4.372;2023-11-19T09:52:47;13.10;99.90
24011;DHT22;12217;50.792;4.372;2023-11-19T09:55:14;13.00;99.90
24011;DHT22;12217;50.792;4.372;2023-11-19T09:57:40;12.90;99.90
24011;DHT22;12217;50.792;4.372;2023-11-19T10:00:08;13.00;99.90
24011;DHT22;12217;50.792;4.372;2023-11-19T10:02:36;13.10;99.90
24011;DHT22;12217;50.792;4.372;2023-11-19T10:05:12;13.10;99.90
24011;DHT22;12217;50.792;4.372;2023-11-19T10:07:39;13.20;99.90
24011;DHT22;12217;50.792;4.372;2023-11-19T10:10:05;13.20;99.90
24011;DHT22;12217;50.792;4.372;2023-11-19T10:12:30;13.40;99.90
24011;DHT22;12217;50.792;4.372;2023-11-19T10:14:59;13.50;99.90
24011;DHT22;12217;50.792;4.372;2023-11-19T10:17:28;13.50;99.90
24011;DHT22;12217;50.792;4.372;2023-11-19T10:19:56;13.70;99.90
24011;DHT22;12217;50.792;4.372;2023-11-19T10:22:23;13.70;99.90
24011;DHT22;12217;50.792;4.372;2023-11-19T10:24:50;13.80;99.90
24011;DHT22;12217;50.792;4.372;2023-11-19T10:27:15;13.90;99.90
24011;DHT22;12217;50.792;4.372;2023-11-19T10:29:45;13.90;99.90
24011;DHT22;12217;50.792;4.372;2023-11-19T10:32:12;13.90;99.90
24011;DHT22;12217;50.792;4.372;2023-11-19T10:34:41;14.30;99.90
24011;DHT22;12217;50.792;4.372;2023-11-19T10:37:08;14.30;99.90
24011;DHT22;12217;50.792;4.372;2023-11-19T10:39:53;14.70;99.90
24011;DHT22;12217;50.792;4.372;2023-11-19T10:42:20;15.30;99.90
24011;DHT22;12217;50.792;4.372;2023-11-19T10:44:46;15.40;99.90
24011;DHT22;12217;50.792;4.372;2023-11-19T10:47:12;15.40;99.90
24011;DHT22;12217;50.792;4.372;2023-11-19T10:49:38;14.80;99.90
24011;DHT22;12217;50.792;4.372;2023-11-19T10:52:05;14.60;99.90
24011;DHT22;12217;50.792;4.372;2023-11-19T10:54:34;14.30;99.90
24011;DHT22;12217;50.792;4.372;2023-11-19T10:57:01;14.30;99.90
24011;DHT22;12217;50.792;4.372;2023-11-19T10:59:30;14.10;99.90
24011;DHT22;12217;50.792;4.372;2023-11-19T11:01:57;14.20;99.90
24011;DHT22;12217;50.792;4.372;2023-11-19T11:04:25;14.20;99.90
24011;DHT22;12217;50.792;4.372;2023-11-19T11:06:54;14.10;99.90
24011;DHT22;12217;50.792;4.372;2023-11-19T11:09:22;14.30;99.90
24011;DHT22;12217;50.792;4.372;2023-11-19T11:11:50;14.10;99.90
24011;DHT22;12217;50.792;4.372;2023-11-19T11:14:18;13.80;99.90
24011;DHT22;12217;50.792;4.372;2023-11-19T11:16:46;13.60;99.90
24011;DHT22;12217;50.792;4.372;2023-11-19T11:19:15;13.50;99.90
24011;DHT22;12217;50.792;4.372;2023-11-19T11:21:44;13.40;99.90
24011;DHT22;12217;50.792;4.372;2023-11-19T11:28:00;13.30;99.90
24011;DHT22;12217;50.792;4.372;2023-11-19T11:38:14;14.90;99.90
24011;DHT22;12217;50.792;4.372;2023-11-19T11:40:40;15.30;99.90
24011;DHT22;12217;50.792;4.372;2023-11-19T11:43:47;15.60;99.90
24011;DHT22;12217;50.792;4.372;2023-11-19T11:49:07;17.50;99.90
24011;DHT22;12217;50.792;4.372;2023-11-19T11:54:14;18.40;99.90
24011;DHT22;12217;50.792;4.372;2023-11-19T11:57:06;19.50;99.90
24011;DHT22;12217;50.792;4.372;2023-11-19T12:02:08;19.70;99.90
24011;DHT22;12217;50.792;4.372;2023-11-19T12:04:35;19.30;99.90
24011;DHT22;12217;50.792;4.372;2023-11-19T12:09:36;17.00;99.90
24011;DHT22;12217;50.792;4.372;2023-11-19T12:12:28;16.30;99.90
24011;DHT22;12217;50.792;4.372;2023-11-19T12:20:02;14.50;99.90
24011;DHT22;12217;50.792;4.372;2023-11-19T12:22:29;14.20;99.90
24011;DHT22;12217;50.792;4.372;2023-11-19T12:24:55;13.90;99.90
24011;DHT22;12217;50.792;4.372;2023-11-19T12:27:21;13.80;99.90
24011;DHT22;12217;50.792;4.372;2023-11-19T12:29:48;13.50;99.90
24011;DHT22;12217;50.792;4.372;2023-11-19T12:32:14;13.40;99.90
24011;DHT22;12217;50.792;4.372;2023-11-19T12:34:39;13.20;99.90
24011;DHT22;12217;50.792;4.372;2023-11-19T12:37:06;13.10;99.90
24011;DHT22;12217;50.792;4.372;2023-11-19T12:39:31;13.10;99.90
24011;DHT22;12217;50.792;4.372;2023-11-19T12:41:57;13.20;99.90
24011;DHT22;12217;50.792;4.372;2023-11-19T12:44:26;13.30;99.90
24011;DHT22;12217;50.792;4.372;2023-11-19T12:47:05;13.50;99.90
24011;DHT22;12217;50.792;4.372;2023-11-19T12:49:35;13.80;99.90
24011;DHT22;12217;50.792;4.372;2023-11-19T12:52:01;13.80;99.90
24011;DHT22;12217;50.792;4.372;2023-11-19T12:54:35;13.80;99.90
24011;DHT22;12217;50.792;4.372;2023-11-19T12:57:01;13.70;99.90
24011;DHT22;12217;50.792;4.372;2023-11-19T12:59:27;13.60;99.90
24011;DHT22;12217;50.792;4.372;2023-11-19T13:01:57;13.70;99.90
24011;DHT22;12217;50.792;4.372;2023-11-19T13:04:23;13.70;99.90
24011;DHT22;12217;50.792;4.372;2023-11-19T13:06:50;13.80;99.90
24011;DHT22;12217;50.792;4.372;2023-11-19T13:09:26;13.50;99.90
24011;DHT22;12217;50.792;4.372;2023-11-19T13:11:52;13.50;99.90
24011;DHT22;12217;50.792;4.372;2023-11-19T13:14:19;13.50;99.90
24011;DHT22;12217;50.792;4.372;2023-11-19T13:16:45;13.40;99.90
24011;DHT22;12217;50.792;4.372;2023-11-19T13:19:12;13.30;99.90
24011;DHT22;12217;50.792;4.372;2023-11-19T13:21:38;13.30;99.90
24011;DHT22;12217;50.792;4.372;2023-11-19T13:24:08;13.20;99.90
24011;DHT22;12217;50.792;4.372;2023-11-19T13:26:34;13.20;99.90
24011;DHT22;12217;50.792;4.372;2023-11-19T13:29:03;13.20;99.90
24011;DHT22;12217;50.792;4.372;2023-11-19T13:31:29;13.10;99.90
24011;DHT22;12217;50.792;4.372;2023-11-19T13:33:55;13.30;99.90
24011;DHT22;12217;50.792;4.372;2023-11-19T13:36:22;13.50;99.90
24011;DHT22;12217;50.792;4.372;2023-11-19T13:38:47;13.60;99.90
24011;DHT22;12217;50.792;4.372;2023-11-19T13:41:13;13.80;99.90
24011;DHT22;12217;50.792;4.372;2023-11-19T13:43:39;13.80;99.90
24011;DHT22;12217;50.792;4.372;2023-11-19T13:46:05;13.50;99.90
24011;DHT22;12217;50.792;4.372;2023-11-19T13:48:31;13.50;99.90
24011;DHT22;12217;50.792;4.372;2023-11-19T13:50:57;13.90;99.90
24011;DHT22;12217;50.792;4.372;2023-11-19T13:53:23;13.80;99.90
24011;DHT22;12217;50.792;4.372;2023-11-19T13:55:49;13.60;99.90
24011;DHT22;12217;50.792;4.372;2023-11-19T13:58:15;13.50;99.90
24011;DHT22;12217;50.792;4.372;2023-11-19T14:00:42;13.40;99.90
24011;DHT22;12217;50.792;4.372;2023-11-19T14:03:09;13.40;99.90
24011;DHT22;12217;50.792;4.372;2023-11-19T14:05:36;13.30;99.90
24011;DHT22;12217;50.792;4.372;2023-11-19T14:08:01;13.30;99.90
24011;DHT22;12217;50.792;4.372;2023-11-19T14:10:27;13.30;99.90
24011;DHT22;12217;50.792;4.372;2023-11-19T14:12:53;13.10;99.90
24011;DHT22;12217;50.792;4.372;2023-11-19T14:15:19;13.20;99.90
24011;DHT22;12217;50.792;4.372;2023-11-19T14:17:45;13.30;99.90
24011;DHT22;12217;50.792;4.372;2023-11-19T14:20:10;13.40;99.90
24011;DHT22;12217;50.792;4.372;2023-11-19T14:22:44;13.40;99.90
24011;DHT22;12217;50.792;4.372;2023-11-19T14:25:12;13.20;99.90
24011;DHT22;12217;50.792;4.372;2023-11-19T14:27:38;13.20;99.90
24011;DHT22;12217;50.792;4.372;2023-11-19T14:30:08;13.20;99.90
24011;DHT22;12217;50.792;4.372;2023-11-19T14:32:38;13.00;99.90
24011;DHT22;12217;50.792;4.372;2023-11-19T14:35:05;12.80;99.90
24011;DHT22;12217;50.792;4.372;2023-11-19T14:37:31;12.80;99.90
24011;DHT22;12217;50.792;4.372;2023-11-19T14:39:57;13.20;99.90
24011;DHT22;12217;50.792;4.372;2023-11-19T14:42:23;13.30;99.90
24011;DHT22;12217;50.792;4.372;2023-11-19T14:44:50;13.40;99.90
24011;DHT22;12217;50.792;4.372;2023-11-19T14:47:18;13.30;99.90
24011;DHT22;12217;50.792;4.372;2023-11-19T14:49:44;13.30;99.90
24011;DHT22;12217;50.792;4.372;2023-11-19T14:52:09;13.20;99.90
24011;DHT22;12217;50.792;4.372;2023-11-19T14:54:36;13.10;99.90
24011;DHT22;12217;50.792;4.372;2023-11-19T14:57:02;13.00;99.90
24011;DHT22;12217;50.792;4.372;2023-11-19T14:59:28;13.10;99.90
24011;DHT22;12217;50.792;4.372;2023-11-19T15:01:54;13.10;99.90
24011;DHT22;12217;50.792;4.372;2023-11-19T15:04:20;12.90;99.90
24011;DHT22;12217;50.792;4.372;2023-11-19T15:06:46;12.90;99.90
24011;DHT22;12217;50.792;4.372;2023-11-19T15:09:11;12.90;99.90
24011;DHT22;12217;50.792;4.372;2023-11-19T15:11:43;13.00;99.90
24011;DHT22;12217;50.792;4.372;2023-11-19T15:14:14;13.00;99.90
24011;DHT22;12217;50.792;4.372;2023-11-19T15:16:42;13.00;99.90
24011;DHT22;12217;50.792;4.372;2023-11-19T15:19:08;13.00;99.90
24011;DHT22;12217;50.792;4.372;2023-11-19T15:21:34;12.90;99.90
24011;DHT22;12217;50.792;4.372;2023-11-19T15:24:00;13.00;99.90
24011;DHT22;12217;50.792;4.372;2023-11-19T15:26:27;13.10;99.90
24011;DHT22;12217;50.792;4.372;2023-11-19T15:28:53;13.20;99.90
24011;DHT22;12217;50.792;4.372;2023-11-19T15:31:22;13.10;99.90
24011;DHT22;12217;50.792;4.372;2023-11-19T15:33:48;13.10;99.90
24011;DHT22;12217;50.792;4.372;2023-11-19T15:36:14;13.00;99.90
24011;DHT22;12217;50.792;4.372;2023-11-19T15:38:40;13.10;99.90
24011;DHT22;12217;50.792;4.372;2023-11-19T15:41:06;13.20;99.90
24011;DHT22;12217;50.792;4.372;2023-11-19T15:43:33;13.10;99.90
24011;DHT22;12217;50.792;4.372;2023-11-19T15:45:59;13.10;99.90
24011;DHT22;12217;50.792;4.372;2023-11-19T15:48:24;13.00;99.90
24011;DHT22;12217;50.792;4.372;2023-11-19T15:50:51;13.10;99.90
24011;DHT22;12217;50.792;4.372;2023-11-19T15:53:17;13.10;99.90
24011;DHT22;12217;50.792;4.372;2023-11-19T15:55:44;13.00;99.90
24011;DHT22;12217;50.792;4.372;2023-11-19T15:58:15;13.00;99.90
24011;DHT22;12217;50.792;4.372;2023-11-19T16:00:40;12.90;99.90
24011;DHT22;12217;50.792;4.372;2023-11-19T16:03:11;12.60;99.90